EDT,Max TemperatureF,Mean TemperatureF,Min TemperatureF,Max Dew PointF,MeanDew PointF,Min DewpointF,Max Humidity, Mean Humidity, Min Humidity, Max Sea Level PressureIn, Mean Sea Level PressureIn, Min Sea Level PressureIn, Max VisibilityMiles, Mean VisibilityMiles, Min VisibilityMiles, Max Wind SpeedMPH, Mean Wind SpeedMPH, Max Gust SpeedMPH,PrecipitationIn, CloudCover, Events, WindDirDegrees
2014-4-1,72,54,36,38,32,26,76,51,26,30.17,30.06,29.95,10,10,10,15,4,20,0.00,0,,211
2014-4-2,75,59,42,41,38,34,82,53,23,30.08,30.03,29.98,10,10,10,14,5,18,0.01,1,,62
2014-4-3,69,60,50,49,47,44,93,69,45,30.14,30.02,29.91,10,10,10,13,3,14,0.02,3,Rain,171
2014-4-4,65,57,49,51,48,42,83,74,65,29.89,29.81,29.68,10,10,4,13,5,20,T,4,Rain,39
2014-4-5,64,53,42,48,29,23,56,41,25,30.14,29.95,29.72,10,10,10,15,7,20,0.00,0,,318
2014-4-6,61,48,34,29,24,19,70,46,21,30.25,30.18,30.13,10,10,10,13,4,16,0.00,0,,89
2014-4-7,50,45,39,45,40,29,100,71,42,30.14,29.89,29.63,10,4,0,14,3,20,0.76,8,Fog-Rain,126
2014-4-8,66,55,44,52,43,34,100,69,37,29.71,29.58,29.49,10,8,2,17,9,27,0.00,4,,254
2014-4-9,66,54,41,38,33,31,76,53,30,30.07,29.84,29.69,10,10,10,15,4,24,0.00,3,,321
2014-4-10,72,55,38,35,32,29,70,45,20,30.22,30.11,30.04,10,10,10,23,9,30,0.00,0,,212
2014-4-11,81,68,55,52,39,33,72,46,20,30.08,30.01,29.91,10,10,10,23,9,28,T,2,Rain,201
2014-4-12,77,64,50,52,48,42,89,61,33,30.25,30.14,30.04,10,10,10,15,6,20,0.00,1,,137
2014-4-13,82,67,51,54,52,50,93,64,34,30.14,30.06,29.99,10,10,10,22,10,31,0.00,0,,192
2014-4-14,75,69,62,58,54,52,78,64,49,29.99,29.91,29.79,10,10,10,26,15,35,T,3,,196
2014-4-15,67,51,35,63,53,20,100,74,48,30.04,29.70,29.55,10,7,2,22,9,31,1.41,7,Rain,219
2014-4-16,50,41,31,20,17,14,53,39,24,30.52,30.36,30.09,10,10,10,17,8,24,0.00,0,,16
2014-4-17,58,43,28,32,26,20,78,54,30,30.62,30.55,30.48,10,10,10,12,4,17,0.00,0,,72
2014-4-18,58,47,36,38,35,32,85,64,43,30.53,30.41,30.27,10,10,7,10,3,14,0.00,3,,133
2014-4-19,66,54,41,41,39,37,89,63,37,30.29,30.24,30.20,10,10,10,18,6,25,0.00,0,,46
2014-4-20,66,56,45,36,32,29,61,46,31,30.39,30.31,30.27,10,10,10,15,7,21,0.00,0,,55
2014-4-21,73,54,34,34,29,23,89,53,16,30.26,30.08,29.88,10,10,10,9,3,14,0.00,0,,188
2014-4-22,76,63,50,53,43,29,67,49,31,29.86,29.69,29.59,10,10,10,14,6,19,0.01,3,Rain,238
2014-4-23,64,57,50,44,32,28,64,46,27,30.01,29.83,29.66,10,10,10,23,9,28,0.00,0,,338
2014-4-24,67,55,42,27,23,17,49,33,16,30.14,30.05,29.98,10,10,10,13,4,18,0.00,0,,103
2014-4-25,59,52,44,56,47,27,100,69,38,30.01,29.80,29.70,10,7,0,10,3,15,0.34,6,Fog-Rain-Thunderstorm,50
2014-4-26,78,63,47,46,40,35,66,45,23,29.90,29.83,29.78,10,10,10,15,6,21,0.00,2,,246
2014-4-27,74,62,49,46,40,36,66,51,35,30.08,29.99,29.89,10,10,10,15,5,18,0.00,0,,47
2014-4-28,60,54,48,50,46,38,96,71,46,30.08,30.03,29.97,10,5,2,9,4,12,0.25,8,Rain,86
2014-4-29,51,49,47,49,47,46,100,95,89,30.16,30.09,30.02,10,3,2,18,9,24,1.02,8,Rain,40
2014-4-30,59,54,49,58,53,48,100,97,93,30.12,29.97,29.84,10,4,1,13,4,17,2.01,8,Rain-Thunderstorm,46